Time;durP1;ratioP1;P1;durP2;ratioP2;P2;SDS_P1;SDS_P2;PMS_P1;PMS_P2;Temp;Humidity;BMP_temperature;BMP_pressure;BME280_temperature;BME280_humidity;BME280_pressure;Samples;Min_cycle;Max_cycle;Signal;HPM_P1;HPM_P2
2022/01/01 00:00:17;;;;;;;25.17;10.38;;;;;;;;;;6117796;23;20170;-92
2022/01/01 00:03:26;;;;;;;22.92;10.82;;;;;;;;;;6119110;23;20165;-94
2022/01/01 00:06:31;;;;;;;30.08;14.15;;;;;;;;;;6115072;23;20293;-93
2022/01/01 00:09:36;;;;;;;23.27;11.75;;;;;;;;;;6113823;23;20189;-92
2022/01/01 00:12:42;;;;;;;31.42;14.13;;;;;;;;;;6112775;23;20162;-92
2022/01/01 00:15:47;;;;;;;33.85;15.32;;;;;;;;;;6114624;23;20499;-91
2022/01/01 00:18:55;;;;;;;36.80;18.13;;;;;;;;;;6130107;23;20285;-92
2022/01/01 00:22:00;;;;;;;59.65;25.80;;;;;;;;;;6114031;23;20170;-92
2022/01/01 00:25:06;;;;;;;71.57;30.27;;;;;;;;;;6116666;23;20186;-91
2022/01/01 00:28:12;;;;;;;57.88;26.27;;;;;;;;;;6112973;23;20245;-92
2022/01/01 00:31:18;;;;;;;57.88;25.40;;;;;;;;;;6115676;23;20162;-92
2022/01/01 00:34:24;;;;;;;61.90;26.35;;;;;;;;;;6115278;23;20165;-91
2022/01/01 00:37:30;;;;;;;50.17;22.30;;;;;;;;;;6115038;23;20193;-91
2022/01/01 00:40:35;;;;;;;69.13;30.95;;;;;;;;;;6114336;23;20173;-91
2022/01/01 00:43:40;;;;;;;67.13;30.20;;;;;;;;;;6116881;23;20202;-91
2022/01/01 00:46:45;;;;;;;47.25;20.25;;;;;;;;;;6114753;23;20267;-91
2022/01/01 00:49:51;;;;;;;41.42;19.15;;;;;;;;;;6130593;23;20154;-91
2022/01/01 00:52:56;;;;;;;45.10;19.73;;;;;;;;;;6113536;23;20165;-92
2022/01/01 00:56:02;;;;;;;44.10;20.92;;;;;;;;;;6112186;23;20194;-92
2022/01/01 00:59:07;;;;;;;47.97;21.42;;;;;;;;;;6112331;23;20189;-93
2022/01/01 01:02:12;;;;;;;55.33;24.52;;;;;;;;;;6109609;23;20178;-92
2022/01/01 01:05:19;;;;;;;56.25;24.75;;;;;;;;;;6111756;23;20170;-92
2022/01/01 01:08:25;;;;;;;63.88;27.40;;;;;;;;;;6111701;23;20153;-92
2022/01/01 01:11:30;;;;;;;56.00;25.40;;;;;;;;;;6113645;23;20237;-92
2022/01/01 01:14:40;;;;;;;48.28;21.90;;;;;;;;;;6112364;23;20201;-92
2022/01/01 01:17:45;;;;;;;51.90;22.85;;;;;;;;;;6112094;23;20186;-92
2022/01/01 01:20:52;;;;;;;53.92;22.73;;;;;;;;;;6113680;23;20177;-92
2022/01/01 01:23:58;;;;;;;55.42;24.00;;;;;;;;;;6112304;23;20169;-91
2022/01/01 01:27:04;;;;;;;47.80;23.10;;;;;;;;;;6111869;23;20618;-92
2022/01/01 01:30:12;;;;;;;60.53;23.50;;;;;;;;;;6125207;23;20173;-92
2022/01/01 01:33:17;;;;;;;61.35;26.17;;;;;;;;;;6123888;23;20177;-92
2022/01/01 01:36:24;;;;;;;66.70;29.65;;;;;;;;;;6140251;23;20178;-92
2022/01/01 01:39:30;;;;;;;63.33;28.05;;;;;;;;;;6141596;23;20264;-91
2022/01/01 01:42:36;;;;;;;59.33;25.98;;;;;;;;;;6141127;23;20398;-92
2022/01/01 01:45:43;;;;;;;51.92;25.58;;;;;;;;;;6141402;23;20198;-92
2022/01/01 01:48:49;;;;;;;67.75;29.85;;;;;;;;;;6140762;23;20169;-90
2022/01/01 01:51:56;;;;;;;74.95;31.77;;;;;;;;;;6140893;23;20165;-92
2022/01/01 01:55:01;;;;;;;64.53;30.95;;;;;;;;;;6123479;23;20664;-92
2022/01/01 01:58:06;;;;;;;78.65;34.25;;;;;;;;;;6139202;23;20324;-92
2022/01/01 02:01:24;;;;;;;75.10;31.92;;;;;;;;;;6121484;23;20220;-92
2022/01/01 02:04:29;;;;;;;71.07;31.45;;;;;;;;;;6143291;23;20169;-92
2022/01/01 02:07:36;;;;;;;71.85;32.25;;;;;;;;;;6143758;23;20165;-91
2022/01/01 02:10:41;;;;;;;71.88;31.30;;;;;;;;;;6141946;23;20169;-93
2022/01/01 02:14:03;;;;;;;68.05;30.05;;;;;;;;;;6142579;23;20170;-94
2022/01/01 02:17:11;;;;;;;65.45;29.08;;;;;;;;;;6142308;23;20169;-92
2022/01/01 02:20:19;;;;;;;61.90;28.73;;;;;;;;;;6128217;23;20237;-92
2022/01/01 02:23:27;;;;;;;66.20;30.30;;;;;;;;;;6145891;23;20197;-93
2022/01/01 02:26:33;;;;;;;67.00;28.92;;;;;;;;;;6126757;23;20221;-92
2022/01/01 02:29:39;;;;;;;75.40;30.38;;;;;;;;;;6143391;23;20169;-93
2022/01/01 02:32:44;;;;;;;66.05;30.33;;;;;;;;;;6140910;23;20177;-91
2022/01/01 02:35:51;;;;;;;72.03;32.17;;;;;;;;;;6124052;23;20161;-93
2022/01/01 02:38:56;;;;;;;70.13;32.13;;;;;;;;;;6126584;23;20250;-92
2022/01/01 02:42:01;;;;;;;70.50;33.13;;;;;;;;;;6143450;23;20209;-91
2022/01/01 02:45:09;;;;;;;74.97;33.17;;;;;;;;;;6126356;23;20166;-92
2022/01/01 02:48:15;;;;;;;78.78;33.70;;;;;;;;;;6143068;23;20206;-92
2022/01/01 02:51:23;;;;;;;76.88;33.90;;;;;;;;;;6141677;23;20178;-92
2022/01/01 02:54:29;;;;;;;81.68;34.72;;;;;;;;;;6143522;23;20177;-91
2022/01/01 02:57:34;;;;;;;76.60;34.53;;;;;;;;;;6124091;23;20169;-92
2022/01/01 03:00:41;;;;;;;85.05;35.35;;;;;;;;;;6140609;23;20186;-93
2022/01/01 03:03:47;;;;;;;77.07;32.53;;;;;;;;;;6142213;23;20169;-92
2022/01/01 03:06:55;;;;;;;72.10;33.80;;;;;;;;;;6141385;23;20168;-91
2022/01/01 03:10:00;;;;;;;70.40;31.70;;;;;;;;;;6122414;23;20177;-92
2022/01/01 03:13:06;;;;;;;81.30;32.97;;;;;;;;;;6122324;23;20169;-92
2022/01/01 03:16:11;;;;;;;73.00;33.42;;;;;;;;;;6123997;23;20189;-91
2022/01/01 03:19:17;;;;;;;76.32;33.95;;;;;;;;;;6141956;23;20197;-93
2022/01/01 03:22:24;;;;;;;73.22;31.10;;;;;;;;;;6141745;23;20212;-92
2022/01/01 03:25:31;;;;;;;72.63;32.83;;;;;;;;;;6123625;23;20266;-92
2022/01/01 03:28:37;;;;;;;75.03;32.10;;;;;;;;;;6112176;23;20197;-92
2022/01/01 03:31:42;;;;;;;73.03;31.55;;;;;;;;;;6111534;23;20223;-92
2022/01/01 03:34:47;;;;;;;70.05;32.58;;;;;;;;;;6113781;23;20187;-92
2022/01/01 03:37:53;;;;;;;74.28;32.67;;;;;;;;;;6113741;23;20238;-91
2022/01/01 03:40:59;;;;;;;68.43;31.95;;;;;;;;;;6112655;23;20201;-91
2022/01/01 03:44:03;;;;;;;68.50;31.35;;;;;;;;;;6112967;23;20246;-92
2022/01/01 03:47:09;;;;;;;75.40;31.60;;;;;;;;;;6130145;23;20195;-91
2022/01/01 03:50:14;;;;;;;67.32;31.25;;;;;;;;;;6111471;23;20507;-90
2022/01/01 03:53:22;;;;;;;70.97;31.42;;;;;;;;;;6110388;23;20225;-91
2022/01/01 03:56:30;;;;;;;71.97;32.28;;;;;;;;;;6112951;23;20170;-91
2022/01/01 03:59:35;;;;;;;74.07;34.50;;;;;;;;;;6114337;23;20197;-91
2022/01/01 04:02:41;;;;;;;65.85;29.63;;;;;;;;;;6113988;23;20246;-92
2022/01/01 04:05:47;;;;;;;79.45;35.85;;;;;;;;;;6111797;23;20173;-92
2022/01/01 04:08:53;;;;;;;63.83;29.52;;;;;;;;;;6112229;23;20216;-91
2022/01/01 04:11:59;;;;;;;62.92;28.48;;;;;;;;;;6112988;23;20183;-92
2022/01/01 04:15:05;;;;;;;67.15;29.27;;;;;;;;;;6113492;23;20215;-92
2022/01/01 04:18:12;;;;;;;61.83;28.38;;;;;;;;;;6114474;23;20290;-92
2022/01/01 04:21:17;;;;;;;64.40;29.05;;;;;;;;;;6112909;23;20614;-92
2022/01/01 04:24:25;;;;;;;62.38;27.73;;;;;;;;;;6112028;23;20174;-92
2022/01/01 04:27:30;;;;;;;50.25;21.90;;;;;;;;;;6116676;23;20264;-91
2022/01/01 04:30:35;;;;;;;46.00;19.60;;;;;;;;;;6123507;23;20165;-92
2022/01/01 04:33:40;;;;;;;42.63;19.58;;;;;;;;;;6138751;23;20212;-92
2022/01/01 04:36:50;;;;;;;34.30;16.65;;;;;;;;;;6121738;23;20153;-91
2022/01/01 04:39:59;;;;;;;51.05;22.45;;;;;;;;;;6139953;23;20224;-92
2022/01/01 04:43:04;;;;;;;54.63;24.65;;;;;;;;;;6140996;23;20222;-91
2022/01/01 04:46:10;;;;;;;57.55;25.65;;;;;;;;;;6141595;23;20205;-90
2022/01/01 04:49:15;;;;;;;54.20;24.55;;;;;;;;;;6128243;23;20214;-91
2022/01/01 04:52:20;;;;;;;50.30;22.73;;;;;;;;;;6127780;23;20168;-90
2022/01/01 04:55:27;;;;;;;55.42;23.83;;;;;;;;;;6125798;23;20221;-91
2022/01/01 04:58:32;;;;;;;51.05;24.15;;;;;;;;;;6125330;23;20157;-92
2022/01/01 05:02:14;;;;;;;50.88;24.73;;;;;;;;;;6143692;23;20169;-91
2022/01/01 05:05:19;;;;;;;53.78;25.60;;;;;;;;;;6143691;23;20241;-92
2022/01/01 05:08:24;;;;;;;59.90;26.02;;;;;;;;;;6143354;23;20209;-91
2022/01/01 05:11:31;;;;;;;56.92;25.67;;;;;;;;;;6143438;23;20157;-91
2022/01/01 05:14:36;;;;;;;57.92;24.95;;;;;;;;;;6144253;23;20169;-93
2022/01/01 05:17:41;;;;;;;55.45;25.08;;;;;;;;;;6126311;23;20173;-91
2022/01/01 05:20:46;;;;;;;50.50;23.55;;;;;;;;;;6143108;23;20202;-92
2022/01/01 05:23:51;;;;;;;54.08;23.40;;;;;;;;;;6145131;23;20173;-92
2022/01/01 05:26:58;;;;;;;47.80;22.15;;;;;;;;;;6144903;23;20218;-91
2022/01/01 05:30:03;;;;;;;46.33;20.85;;;;;;;;;;6144333;23;20240;-90
2022/01/01 05:33:08;;;;;;;37.90;19.05;;;;;;;;;;6144700;23;20168;-91
2022/01/01 05:36:13;;;;;;;41.63;18.75;;;;;;;;;;6145358;23;20173;-91
2022/01/01 05:39:18;;;;;;;42.88;19.73;;;;;;;;;;6144990;23;20184;-91
2022/01/01 05:42:25;;;;;;;39.78;17.10;;;;;;;;;;6143982;23;20193;-91
2022/01/01 05:45:31;;;;;;;38.30;17.27;;;;;;;;;;6145289;23;20177;-91
2022/01/01 05:48:38;;;;;;;38.10;16.20;;;;;;;;;;6143375;23;20169;-90
2022/01/01 05:51:43;;;;;;;33.25;16.05;;;;;;;;;;6142845;23;20173;-92
2022/01/01 05:54:48;;;;;;;39.63;17.73;;;;;;;;;;6143618;23;20169;-92
2022/01/01 05:57:55;;;;;;;37.75;17.98;;;;;;;;;;6125729;23;20174;-91
2022/01/01 06:01:00;;;;;;;39.63;18.33;;;;;;;;;;6125577;23;20605;-91
2022/01/01 06:04:06;;;;;;;38.60;17.92;;;;;;;;;;6145397;23;20177;-91
2022/01/01 06:07:11;;;;;;;40.95;18.08;;;;;;;;;;6124025;23;20169;-92
2022/01/01 06:10:16;;;;;;;42.97;19.13;;;;;;;;;;6143551;23;20283;-92
2022/01/01 06:13:53;;;;;;;48.20;21.20;;;;;;;;;;6141809;23;20178;-91
2022/01/01 06:17:00;;;;;;;40.33;20.33;;;;;;;;;;6140777;23;20236;-91
2022/01/01 06:20:05;;;;;;;45.55;21.33;;;;;;;;;;6140706;23;20185;-91
2022/01/01 06:23:10;;;;;;;45.00;20.75;;;;;;;;;;6123747;23;20238;-92
2022/01/01 06:26:16;;;;;;;46.65;21.42;;;;;;;;;;6143528;23;20173;-90
2022/01/01 06:29:21;;;;;;;46.10;19.90;;;;;;;;;;6124043;23;20212;-91
2022/01/01 06:32:31;;;;;;;30.98;14.95;;;;;;;;;;6123927;23;20174;-91
2022/01/01 06:35:37;;;;;;;25.63;12.57;;;;;;;;;;6141472;23;20189;-92
2022/01/01 06:38:42;;;;;;;22.92;10.45;;;;;;;;;;6123474;23;20168;-91
2022/01/01 06:41:48;;;;;;;25.08;10.13;;;;;;;;;;6125871;23;20161;-91
2022/01/01 06:44:53;;;;;;;17.80;8.00;;;;;;;;;;6127317;23;20541;-91
2022/01/01 06:48:00;;;;;;;21.85;7.97;;;;;;;;;;6127308;23;20205;-92
2022/01/01 06:51:05;;;;;;;15.98;7.35;;;;;;;;;;6127833;23;20149;-93
2022/01/01 06:54:10;;;;;;;20.08;7.85;;;;;;;;;;6127447;23;20165;-92
2022/01/01 06:57:16;;;;;;;20.25;8.15;;;;;;;;;;6127557;23;20173;-93
2022/01/01 07:00:21;;;;;;;12.32;6.97;;;;;;;;;;6126070;23;20217;-92
2022/01/01 07:03:28;;;;;;;16.55;7.57;;;;;;;;;;6125858;23;20174;-93
2022/01/01 07:06:34;;;;;;;24.85;12.50;;;;;;;;;;6126722;23;20173;-92
2022/01/01 07:09:39;;;;;;;22.25;10.82;;;;;;;;;;6127739;23;20199;-93
2022/01/01 07:12:44;;;;;;;28.45;12.18;;;;;;;;;;6126713;23;20205;-93
2022/01/01 07:15:49;;;;;;;36.33;16.35;;;;;;;;;;6127291;23;20173;-92
2022/01/01 07:18:56;;;;;;;37.10;16.17;;;;;;;;;;6128435;23;20168;-92
2022/01/01 07:22:01;;;;;;;36.97;16.92;;;;;;;;;;6126300;23;20185;-92
2022/01/01 07:25:07;;;;;;;41.30;18.70;;;;;;;;;;6128045;23;20173;-93
2022/01/01 07:28:14;;;;;;;43.65;19.80;;;;;;;;;;6127582;23;20218;-91
2022/01/01 07:31:19;;;;;;;42.97;20.08;;;;;;;;;;6126511;23;20177;-91
2022/01/01 07:34:26;;;;;;;38.83;19.00;;;;;;;;;;6124366;23;20165;-92
2022/01/01 07:37:32;;;;;;;42.28;18.73;;;;;;;;;;6123889;23;20660;-92
2022/01/01 07:40:39;;;;;;;41.05;18.98;;;;;;;;;;6122927;23;20337;-93
2022/01/01 07:43:44;;;;;;;39.92;17.98;;;;;;;;;;6124949;23;20157;-92
2022/01/01 07:46:50;;;;;;;39.47;19.70;;;;;;;;;;6126825;23;20498;-93
2022/01/01 07:49:56;;;;;;;41.63;18.20;;;;;;;;;;6126459;23;20206;-94
2022/01/01 07:53:02;;;;;;;39.60;18.27;;;;;;;;;;6126814;23;20242;-92
2022/01/01 07:56:07;;;;;;;33.65;16.17;;;;;;;;;;6124829;23;20160;-92
2022/01/01 07:59:12;;;;;;;37.22;17.83;;;;;;;;;;6126250;23;20173;-92
2022/01/01 08:02:17;;;;;;;39.67;16.80;;;;;;;;;;6127331;23;20190;-92
2022/01/01 08:05:24;;;;;;;39.08;17.23;;;;;;;;;;6125189;23;20169;-92
2022/01/01 08:08:29;;;;;;;38.45;17.50;;;;;;;;;;6125136;23;20152;-92
2022/01/01 08:11:34;;;;;;;32.95;16.83;;;;;;;;;;6127215;23;20173;-93
2022/01/01 08:14:40;;;;;;;38.05;17.02;;;;;;;;;;6123763;23;20253;-92
2022/01/01 08:17:45;;;;;;;34.72;16.33;;;;;;;;;;6124277;23;20201;-92
2022/01/01 08:20:52;;;;;;;41.13;16.88;;;;;;;;;;6123152;23;20205;-92
2022/01/01 08:23:57;;;;;;;35.67;16.20;;;;;;;;;;6124391;23;20169;-92
2022/01/01 08:27:03;;;;;;;34.15;17.23;;;;;;;;;;6144558;23;20297;-93
2022/01/01 08:30:09;;;;;;;37.78;16.70;;;;;;;;;;6143471;23;20164;-93
2022/01/01 08:33:15;;;;;;;40.35;17.80;;;;;;;;;;6126191;23;20169;-92
2022/01/01 08:36:21;;;;;;;39.10;17.48;;;;;;;;;;6122700;23;20177;-92
2022/01/01 08:39:30;;;;;;;34.40;16.13;;;;;;;;;;6139773;23;20641;-93
2022/01/01 08:42:35;;;;;;;29.52;15.32;;;;;;;;;;6140497;23;20173;-90
2022/01/01 08:45:40;;;;;;;41.60;18.75;;;;;;;;;;6123880;23;20165;-92
2022/01/01 08:48:48;;;;;;;45.67;18.42;;;;;;;;;;6142738;23;20173;-92
2022/01/01 08:51:56;;;;;;;32.90;16.88;;;;;;;;;;6125110;23;20161;-92
2022/01/01 08:55:01;;;;;;;32.55;15.45;;;;;;;;;;6124202;23;20169;-91
2022/01/01 08:58:06;;;;;;;38.03;15.75;;;;;;;;;;6126092;23;20168;-92
2022/01/01 09:01:12;;;;;;;36.10;16.30;;;;;;;;;;6144410;23;20692;-91
2022/01/01 09:04:17;;;;;;;29.58;15.07;;;;;;;;;;6144040;23;20165;-92
2022/01/01 09:07:28;;;;;;;27.85;15.02;;;;;;;;;;6143589;23;20169;-89
2022/01/01 09:10:33;;;;;;;29.00;13.85;;;;;;;;;;6142855;23;20201;-92
2022/01/01 09:13:41;;;;;;;30.35;14.30;;;;;;;;;;6144158;23;20169;-92
2022/01/01 09:16:47;;;;;;;27.80;13.32;;;;;;;;;;6131016;23;20198;-92
2022/01/01 09:19:52;;;;;;;26.17;13.05;;;;;;;;;;6145340;23;20201;-90
2022/01/01 09:22:59;;;;;;;28.50;13.60;;;;;;;;;;6145745;23;20169;-91
2022/01/01 09:26:04;;;;;;;28.45;12.57;;;;;;;;;;6145112;23;20173;-92
2022/01/01 09:29:10;;;;;;;25.15;12.35;;;;;;;;;;6131709;23;20192;-91
2022/01/01 09:32:15;;;;;;;25.35;11.85;;;;;;;;;;6116391;23;20161;-92
2022/01/01 09:35:21;;;;;;;22.25;11.00;;;;;;;;;;6115102;23;20232;-94
2022/01/01 09:38:27;;;;;;;23.58;11.30;;;;;;;;;;6115301;23;20237;-92
2022/01/01 09:41:33;;;;;;;22.63;10.95;;;;;;;;;;6115325;23;20222;-93
2022/01/01 09:44:40;;;;;;;24.80;10.52;;;;;;;;;;6132052;23;20166;-93
2022/01/01 09:47:47;;;;;;;20.85;10.40;;;;;;;;;;6130409;23;20170;-91
2022/01/01 09:50:54;;;;;;;19.63;10.05;;;;;;;;;;6114226;23;20177;-92
2022/01/01 09:54:01;;;;;;;22.95;10.40;;;;;;;;;;6115115;23;20242;-91
2022/01/01 09:57:06;;;;;;;20.17;9.93;;;;;;;;;;6114921;23;20169;-92
2022/01/01 10:00:13;;;;;;;20.10;9.55;;;;;;;;;;6110953;23;20197;-92
2022/01/01 10:03:18;;;;;;;17.60;8.68;;;;;;;;;;6112256;23;20266;-92
2022/01/01 10:06:23;;;;;;;22.77;10.70;;;;;;;;;;6114252;23;20162;-92
2022/01/01 10:09:33;;;;;;;26.13;13.77;;;;;;;;;;6115321;23;20215;-90
2022/01/01 10:12:40;;;;;;;26.48;12.40;;;;;;;;;;6116647;23;20202;-92
2022/01/01 10:15:48;;;;;;;23.65;11.98;;;;;;;;;;6113522;23;20642;-92
2022/01/01 10:18:54;;;;;;;26.55;11.80;;;;;;;;;;6129616;23;20197;-90
2022/01/01 10:22:05;;;;;;;23.08;10.45;;;;;;;;;;6097512;23;20189;-92
2022/01/01 10:28:52;;;;;;;18.75;8.90;;;;;;;;;;6113217;23;20194;-91
2022/01/01 10:31:59;;;;;;;17.13;8.05;;;;;;;;;;6111551;23;20169;-90
2022/01/01 10:35:07;;;;;;;17.00;8.45;;;;;;;;;;6112535;23;20187;-92
2022/01/01 10:38:13;;;;;;;17.50;7.90;;;;;;;;;;6114417;23;20154;-92
2022/01/01 10:41:18;;;;;;;17.98;8.38;;;;;;;;;;6116460;23;20197;-92
2022/01/01 10:44:28;;;;;;;19.65;8.82;;;;;;;;;;6116595;23;20222;-91
2022/01/01 10:47:35;;;;;;;20.67;9.73;;;;;;;;;;6117317;23;20162;-93
2022/01/01 10:50:43;;;;;;;19.58;9.35;;;;;;;;;;6115479;23;20233;-92
2022/01/01 10:53:49;;;;;;;22.17;9.13;;;;;;;;;;6115388;23;20198;-91
2022/01/01 10:56:56;;;;;;;21.98;9.10;;;;;;;;;;6117779;23;20202;-92
2022/01/01 11:00:20;;;;;;;16.00;7.95;;;;;;;;;;6116611;23;20245;-93
2022/01/01 11:03:27;;;;;;;18.55;7.28;;;;;;;;;;6114166;23;20153;-93
2022/01/01 11:06:33;;;;;;;15.27;6.70;;;;;;;;;;6115065;23;20219;-93
2022/01/01 11:09:38;;;;;;;11.40;5.63;;;;;;;;;;6114051;23;20161;-92
2022/01/01 11:12:43;;;;;;;11.85;4.82;;;;;;;;;;6116127;23;20190;-91
2022/01/01 11:15:49;;;;;;;11.20;5.10;;;;;;;;;;6113141;23;20170;-93
2022/01/01 11:18:56;;;;;;;12.48;5.15;;;;;;;;;;6115715;23;20173;-93
2022/01/01 11:22:12;;;;;;;10.15;5.10;;;;;;;;;;6116246;23;20196;-92
2022/01/01 14:47:43;;;;;;;10.25;4.90;;;;;;;;;;6179088;23;20200;-93
2022/01/01 14:50:52;;;;;;;11.20;4.43;;;;;;;;;;6184980;23;20184;-92
2022/01/01 14:54:03;;;;;;;9.38;4.45;;;;;;;;;;6186337;23;20255;-91
2022/01/01 14:57:14;;;;;;;10.80;4.57;;;;;;;;;;6185529;23;20635;-92
2022/01/01 15:00:20;;;;;;;9.95;4.70;;;;;;;;;;6184638;23;20191;-91
2022/01/01 15:03:30;;;;;;;13.00;5.25;;;;;;;;;;6184886;23;20228;-92
2022/01/01 15:06:35;;;;;;;12.90;5.88;;;;;;;;;;6184415;23;20182;-92
2022/01/01 15:09:42;;;;;;;16.20;5.47;;;;;;;;;;6185446;23;20436;-91
2022/01/01 15:12:52;;;;;;;13.00;5.57;;;;;;;;;;6184097;23;20175;-90
2022/01/01 15:15:58;;;;;;;13.85;6.28;;;;;;;;;;6184528;23;20155;-91
2022/01/01 15:19:05;;;;;;;19.77;6.57;;;;;;;;;;6186526;23;20191;-90
2022/01/01 15:22:14;;;;;;;13.10;6.05;;;;;;;;;;6187049;23;20204;-91
2022/01/01 15:25:21;;;;;;;14.70;5.88;;;;;;;;;;6183859;23;20215;-92
2022/01/01 15:28:27;;;;;;;14.65;5.95;;;;;;;;;;6185445;23;20179;-92
2022/01/01 15:31:42;;;;;;;17.95;8.20;;;;;;;;;;6184276;23;20167;-91
2022/01/01 15:34:56;;;;;;;16.00;6.28;;;;;;;;;;6185267;23;20219;-91
2022/01/01 15:38:08;;;;;;;18.63;6.57;;;;;;;;;;6186420;23;20171;-91
2022/01/01 15:41:29;;;;;;;14.73;6.57;;;;;;;;;;6186237;23;20195;-91
2022/01/01 15:44:36;;;;;;;13.38;6.93;;;;;;;;;;6188125;23;20171;-90
2022/01/01 15:47:42;;;;;;;17.50;6.97;;;;;;;;;;6175959;23;20195;-91
2022/01/01 15:50:51;;;;;;;14.10;6.32;;;;;;;;;;6174827;23;20167;-92
2022/01/01 15:53:56;;;;;;;18.50;7.65;;;;;;;;;;6170422;23;20165;-91
2022/01/01 15:57:07;;;;;;;14.55;7.22;;;;;;;;;;6171464;23;20212;-91
2022/01/01 16:00:16;;;;;;;18.20;6.85;;;;;;;;;;6172384;23;20176;-92
2022/01/01 16:03:29;;;;;;;15.90;7.50;;;;;;;;;;6173441;23;20160;-91
2022/01/01 16:06:38;;;;;;;35.75;15.48;;;;;;;;;;6170345;23;20172;-92
2022/01/01 16:09:50;;;;;;;32.03;16.80;;;;;;;;;;6171711;23;20180;-89
2022/01/01 16:12:58;;;;;;;22.23;10.07;;;;;;;;;;6172342;23;20248;-90
2022/01/01 16:16:06;;;;;;;19.35;9.27;;;;;;;;;;6173788;23;20172;-91
2022/01/01 16:19:13;;;;;;;22.20;9.15;;;;;;;;;;6173290;23;20176;-90
2022/01/01 16:22:20;;;;;;;17.65;7.63;;;;;;;;;;6171666;23;20195;-90
2022/01/01 16:37:52;;;;;;;21.30;7.57;;;;;;;;;;6144143;23;20190;-91
2022/01/01 16:40:57;;;;;;;17.70;7.77;;;;;;;;;;6141800;23;20197;-91
2022/01/01 16:44:05;;;;;;;15.65;6.65;;;;;;;;;;6145482;23;20177;-91
2022/01/01 18:03:29;;;;;;;26.97;11.27;;;;;;;;;;6188232;23;20212;-92
2022/01/01 18:06:36;;;;;;;27.43;9.17;;;;;;;;;;6187858;23;20159;-91
2022/01/01 18:09:52;;;;;;;21.30;9.07;;;;;;;;;;6188721;23;20235;-90
2022/01/01 18:12:58;;;;;;;13.77;6.17;;;;;;;;;;6184990;23;20176;-89
2022/01/01 18:16:04;;;;;;;14.93;6.80;;;;;;;;;;6183889;23;20167;-92
2022/01/01 18:19:11;;;;;;;15.67;7.20;;;;;;;;;;6181729;23;20164;-90
2022/01/01 19:15:07;;;;;;;45.43;8.57;;;;;;;;;;6184147;23;20216;-90
2022/01/01 19:18:14;;;;;;;48.27;7.60;;;;;;;;;;6184648;23;20168;-91
2022/01/01 19:21:22;;;;;;;55.00;9.17;;;;;;;;;;6181272;23;20187;-91
2022/01/01 19:24:27;;;;;;;66.60;9.80;;;;;;;;;;6183418;23;20223;-91
2022/01/01 19:27:32;;;;;;;49.40;8.93;;;;;;;;;;6184328;23;20179;-91
2022/01/01 19:30:40;;;;;;;37.07;9.50;;;;;;;;;;6185222;23;20233;-90
2022/01/01 19:33:47;;;;;;;64.80;10.57;;;;;;;;;;6182918;23;20195;-92
2022/01/01 19:36:54;;;;;;;136.27;11.23;;;;;;;;;;6181648;23;20167;-91
2022/01/01 19:39:59;;;;;;;79.70;9.93;;;;;;;;;;6185107;23;20155;-91
2022/01/01 19:43:06;;;;;;;136.73;12.13;;;;;;;;;;6183708;23;20195;-92
2022/01/01 19:46:13;;;;;;;85.53;10.40;;;;;;;;;;6184048;23;20167;-92
2022/01/01 19:49:20;;;;;;;119.27;11.57;;;;;;;;;;6182718;23;20163;-91
2022/01/01 19:52:25;;;;;;;79.23;11.47;;;;;;;;;;6184511;23;20156;-92
2022/01/01 19:55:36;;;;;;;64.53;10.03;;;;;;;;;;6185287;23;20196;-90
2022/01/01 19:58:41;;;;;;;148.73;11.97;;;;;;;;;;6184843;23;20216;-91
2022/01/01 20:01:48;;;;;;;94.63;12.27;;;;;;;;;;6185137;23;20255;-90
2022/01/01 20:04:53;;;;;;;121.00;13.97;;;;;;;;;;6184209;23;20191;-92
2022/01/01 20:07:59;;;;;;;94.27;11.33;;;;;;;;;;6184512;23;20155;-91
2022/01/01 20:11:04;;;;;;;82.03;11.67;;;;;;;;;;6184653;23;20151;-93
2022/01/01 20:14:09;;;;;;;75.67;11.73;;;;;;;;;;6181595;23;20264;-90
2022/01/01 20:17:16;;;;;;;121.53;19.73;;;;;;;;;;6184257;23;20652;-91
2022/01/01 20:20:21;;;;;;;122.03;11.93;;;;;;;;;;6182554;23;20179;-91
2022/01/01 20:23:26;;;;;;;104.23;13.10;;;;;;;;;;6182316;23;20643;-92
2022/01/01 20:26:32;;;;;;;107.90;11.33;;;;;;;;;;6184551;23;20152;-91
2022/01/01 20:36:02;;;;;;;53.53;9.40;;;;;;;;;;6145587;23;20161;-93
2022/01/01 20:39:10;;;;;;;92.03;9.87;;;;;;;;;;6128142;23;20174;-90
2022/01/01 20:42:21;;;;;;;64.10;8.83;;;;;;;;;;6146140;23;20232;-92
2022/01/01 20:45:26;;;;;;;90.03;10.00;;;;;;;;;;6129840;23;20209;-90
2022/01/01 20:48:33;;;;;;;106.77;9.67;;;;;;;;;;6129245;23;20197;-91
2022/01/01 20:51:43;;;;;;;94.70;10.10;;;;;;;;;;6129785;23;20214;-91
2022/01/01 20:54:51;;;;;;;84.27;13.17;;;;;;;;;;6128843;23;20173;-90
2022/01/01 20:57:56;;;;;;;86.07;10.30;;;;;;;;;;6130342;23;20213;-90
2022/01/01 21:01:03;;;;;;;224.23;12.73;;;;;;;;;;6130679;23;20157;-89
2022/01/01 21:04:12;;;;;;;159.93;11.23;;;;;;;;;;6130397;23;20169;-92
2022/01/01 21:07:24;;;;;;;94.67;10.17;;;;;;;;;;6148050;23;20170;-91
2022/01/01 21:10:31;;;;;;;130.67;10.23;;;;;;;;;;6130007;23;20169;-91
2022/01/01 21:13:38;;;;;;;136.83;12.10;;;;;;;;;;6146829;23;20169;-92
2022/01/01 21:16:44;;;;;;;96.20;11.27;;;;;;;;;;6145007;23;20217;-92
2022/01/01 21:19:51;;;;;;;85.80;11.83;;;;;;;;;;6128947;23;20198;-91
2022/01/01 21:23:00;;;;;;;73.37;10.00;;;;;;;;;;6126948;23;20193;-91
2022/01/01 21:26:05;;;;;;;109.03;10.17;;;;;;;;;;6129652;23;20189;-90
2022/01/01 21:29:10;;;;;;;80.80;11.33;;;;;;;;;;6127533;23;20230;-91
2022/01/01 21:32:16;;;;;;;79.27;9.20;;;;;;;;;;6127511;23;20177;-92
2022/01/01 21:35:22;;;;;;;65.90;8.70;;;;;;;;;;6144225;23;20161;-91
2022/01/01 21:38:28;;;;;;;83.40;10.13;;;;;;;;;;6126392;23;20177;-92
2022/01/01 21:41:37;;;;;;;109.20;10.90;;;;;;;;;;6125710;23;20168;-92
2022/01/01 21:44:42;;;;;;;104.47;13.80;;;;;;;;;;6125823;23;20184;-92
2022/01/01 21:47:47;;;;;;;99.30;10.27;;;;;;;;;;6128688;23;20149;-92
2022/01/01 21:50:52;;;;;;;120.70;10.43;;;;;;;;;;6127081;23;20177;-91
2022/01/01 21:53:59;;;;;;;76.87;9.73;;;;;;;;;;6125349;23;20177;-92
2022/01/01 21:57:05;;;;;;;95.53;11.37;;;;;;;;;;6126605;23;20218;-91
2022/01/01 22:00:11;;;;;;;101.07;13.87;;;;;;;;;;6144282;23;20170;-92
2022/01/01 22:03:16;;;;;;;93.47;12.03;;;;;;;;;;6125676;23;20200;-92
2022/01/01 22:06:21;;;;;;;53.40;9.57;;;;;;;;;;6126128;23;20213;-91
2022/01/01 22:09:27;;;;;;;99.73;9.73;;;;;;;;;;6125039;23;20162;-91
2022/01/01 22:12:33;;;;;;;88.77;11.10;;;;;;;;;;6139222;23;20702;-91
2022/01/01 22:15:38;;;;;;;76.57;11.47;;;;;;;;;;6126328;23;20168;-92
2022/01/01 22:18:43;;;;;;;95.87;10.90;;;;;;;;;;6125839;23;20173;-93
2022/01/01 22:21:49;;;;;;;106.13;12.87;;;;;;;;;;6125927;23;20161;-91
2022/01/01 22:24:56;;;;;;;59.83;9.30;;;;;;;;;;6124839;23;20502;-91
2022/01/01 22:28:02;;;;;;;78.47;9.63;;;;;;;;;;6140036;23;20173;-90
2022/01/01 22:31:09;;;;;;;100.90;10.30;;;;;;;;;;6142957;23;20178;-91
2022/01/01 22:34:16;;;;;;;97.63;9.37;;;;;;;;;;6113669;23;20238;-91
2022/01/01 22:37:21;;;;;;;109.27;9.43;;;;;;;;;;6113781;23;20186;-91
2022/01/01 22:40:28;;;;;;;102.87;9.23;;;;;;;;;;6113876;23;20299;-91
2022/01/01 22:43:37;;;;;;;68.03;9.30;;;;;;;;;;6128392;23;20218;-92
2022/01/01 22:46:42;;;;;;;42.43;8.10;;;;;;;;;;6110803;23;20169;-91
2022/01/01 22:49:47;;;;;;;100.73;9.63;;;;;;;;;;6111967;23;20210;-90
2022/01/01 22:52:53;;;;;;;71.30;8.63;;;;;;;;;;6129292;23;20513;-90
2022/01/01 22:55:59;;;;;;;134.63;10.03;;;;;;;;;;6113156;23;20173;-91
2022/01/01 22:59:05;;;;;;;67.73;9.40;;;;;;;;;;6131742;23;20170;-91
2022/01/01 23:02:39;;;;;;;67.80;9.07;;;;;;;;;;6114414;23;20177;-90
2022/01/01 23:05:45;;;;;;;81.63;9.37;;;;;;;;;;6114506;23;20179;-91
2022/01/01 23:08:50;;;;;;;34.10;7.67;;;;;;;;;;6113714;23;20157;-91
2022/01/01 23:11:57;;;;;;;55.53;9.00;;;;;;;;;;6115574;23;20149;-90
2022/01/01 23:15:04;;;;;;;84.23;9.57;;;;;;;;;;6113586;23;20609;-90
2022/01/01 23:18:52;;;;;;;81.47;9.17;;;;;;;;;;6110305;23;20262;-89
2022/01/01 23:21:45;;;;;;;84.30;9.27;;;;;;;;;;6109833;23;20220;-90
2022/01/01 23:24:50;;;;;;;71.30;8.47;;;;;;;;;;6111378;23;20166;-92
2022/01/01 23:27:58;;;;;;;83.77;9.17;;;;;;;;;;6111608;23;20187;-90
2022/01/01 23:31:05;;;;;;;53.30;8.20;;;;;;;;;;6111595;23;20178;-90
2022/01/01 23:34:18;;;;;;;128.17;10.23;;;;;;;;;;6114876;23;20218;-90
2022/01/01 23:37:24;;;;;;;38.60;8.57;;;;;;;;;;6111082;23;20169;-91
2022/01/01 23:40:30;;;;;;;82.67;9.63;;;;;;;;;;6112364;23;20218;-90
2022/01/01 23:43:37;;;;;;;80.37;8.90;;;;;;;;;;6110587;23;20197;-89
2022/01/01 23:46:50;;;;;;;65.60;8.87;;;;;;;;;;6110705;23;20617;-91
2022/01/01 23:49:56;;;;;;;63.83;8.40;;;;;;;;;;6109581;23;20181;-89
2022/01/01 23:53:03;;;;;;;96.80;9.60;;;;;;;;;;6110786;23;20158;-90
2022/01/01 23:56:09;;;;;;;74.17;8.80;;;;;;;;;;6110270;23;20169;-92
2022/01/01 23:59:21;;;;;;;44.37;7.50;;;;;;;;;;6111582;23;20182;-91
